createdAt,value
2018-09-27T00:01:59.937Z,22.40
2018-09-27T00:04:33.220Z,22.40
2018-09-27T00:07:06.927Z,22.50
2018-09-27T00:09:40.050Z,22.50
2018-09-27T00:12:13.460Z,22.20
2018-09-27T00:14:46.820Z,21.80
2018-09-27T00:17:20.507Z,21.50
2018-09-27T00:19:54.153Z,21.30
2018-09-27T00:22:27.603Z,21.10
2018-09-27T00:25:01.071Z,21.00
2018-09-27T00:27:34.284Z,20.80
2018-09-27T00:30:07.622Z,20.70
2018-09-27T00:32:41.519Z,20.60
2018-09-27T00:35:14.658Z,20.50
2018-09-27T00:37:47.969Z,20.40
2018-09-27T00:40:21.182Z,20.40
2018-09-27T00:42:54.406Z,20.30
2018-09-27T00:45:27.677Z,20.20
2018-09-27T00:48:01.039Z,20.10
2018-09-27T00:50:34.845Z,19.90
2018-09-27T00:53:07.965Z,19.80
2018-09-27T00:55:41.997Z,19.70
2018-09-27T00:58:15.010Z,19.70
2018-09-27T01:00:48.362Z,19.60
2018-09-27T01:03:21.741Z,19.50
2018-09-27T01:05:57.315Z,19.40
2018-09-27T01:08:31.143Z,19.30
2018-09-27T01:11:05.779Z,19.10
2018-09-27T01:13:38.865Z,19.10
2018-09-27T01:16:12.205Z,19.10
2018-09-27T01:18:45.586Z,19.00
2018-09-27T01:21:19.455Z,18.90
2018-09-27T01:23:52.895Z,18.80
2018-09-27T01:26:26.048Z,18.70
2018-09-27T01:29:00.011Z,18.60
2018-09-27T01:31:33.993Z,18.40
2018-09-27T01:34:07.587Z,18.30
2018-09-27T01:36:41.363Z,18.20
2018-09-27T01:39:15.994Z,18.10
2018-09-27T01:41:49.665Z,17.90
2018-09-27T01:44:22.959Z,17.80
2018-09-27T01:46:56.475Z,17.60
2018-09-27T01:49:30.220Z,17.50
2018-09-27T01:59:08.198Z,17.10
2018-09-27T02:01:42.186Z,16.90
2018-09-27T02:04:16.317Z,16.70
2018-09-27T02:06:51.551Z,16.60
2018-09-27T02:09:24.636Z,16.50
2018-09-27T02:11:58.540Z,16.40
2018-09-27T02:14:31.694Z,16.30
2018-09-27T02:17:04.793Z,16.20
2018-09-27T02:19:38.815Z,16.10
2018-09-27T02:22:24.728Z,16.00
2018-09-27T02:24:58.901Z,15.90
2018-09-27T02:27:32.278Z,15.80
2018-09-27T02:30:11.350Z,15.70
2018-09-27T02:32:46.957Z,15.70
2018-09-27T02:35:25.673Z,15.60
2018-09-27T02:38:05.745Z,15.50
2018-09-27T02:40:41.657Z,15.40
2018-09-27T02:43:14.856Z,15.30
2018-09-27T02:45:49.934Z,15.30
2018-09-27T02:48:26.220Z,15.20
2018-09-27T02:51:00.932Z,15.10
2018-09-27T02:53:36.436Z,15.00
2018-09-27T02:56:11.844Z,15.00
2018-09-27T02:58:47.654Z,15.00
2018-09-27T03:01:21.952Z,15.00
2018-09-27T03:03:56.624Z,14.90
2018-09-27T03:06:32.185Z,14.90
2018-09-27T03:09:06.891Z,14.80
2018-09-27T03:11:43.166Z,14.80
2018-09-27T03:14:16.372Z,14.80
2018-09-27T03:16:49.840Z,14.80
2018-09-27T03:19:23.692Z,14.80
2018-09-27T03:21:56.792Z,14.70
2018-09-27T03:24:30.024Z,14.70
2018-09-27T03:27:04.090Z,14.70
2018-09-27T03:29:38.326Z,14.60
2018-09-27T03:32:11.687Z,14.60
2018-09-27T03:34:44.940Z,14.70
2018-09-27T03:37:20.783Z,14.60
2018-09-27T03:39:56.153Z,14.60
2018-09-27T03:42:31.402Z,14.70
2018-09-27T03:45:05.518Z,14.70
2018-09-27T03:47:40.915Z,14.70
2018-09-27T03:50:14.608Z,14.70
2018-09-27T03:52:48.573Z,14.70
2018-09-27T03:55:22.220Z,14.60
2018-09-27T03:57:57.013Z,14.60
2018-09-27T04:00:31.529Z,14.60
2018-09-27T04:03:06.177Z,14.60
2018-09-27T04:05:42.214Z,14.60
2018-09-27T04:08:16.770Z,14.60
2018-09-27T04:10:51.064Z,14.60
2018-09-27T04:13:26.072Z,14.60
2018-09-27T04:16:01.223Z,14.50
2018-09-27T04:18:34.972Z,14.50
2018-09-27T04:21:07.905Z,14.50
2018-09-27T04:23:42.103Z,14.40
2018-09-27T04:26:15.460Z,14.40
2018-09-27T04:28:49.681Z,14.40
2018-09-27T04:31:23.107Z,14.40
2018-09-27T04:33:56.323Z,14.40
2018-09-27T04:36:30.287Z,14.40
2018-09-27T04:39:04.245Z,14.30
2018-09-27T04:41:37.871Z,14.30
2018-09-27T04:44:12.249Z,14.30
2018-09-27T04:46:46.015Z,14.20
2018-09-27T04:49:21.063Z,14.20
2018-09-27T04:51:54.326Z,14.20
2018-09-27T04:54:28.631Z,14.10
2018-09-27T04:57:02.715Z,14.10
2018-09-27T04:59:38.160Z,14.00
2018-09-27T05:02:11.497Z,14.00
2018-09-27T05:04:45.023Z,13.90
2018-09-27T05:07:19.701Z,13.90
2018-09-27T05:09:52.824Z,13.80
2018-09-27T05:12:26.204Z,13.80
2018-09-27T05:14:59.477Z,13.70
2018-09-27T05:17:32.931Z,13.70
2018-09-27T05:20:06.275Z,13.60
2018-09-27T05:22:39.668Z,13.60
2018-09-27T05:25:12.915Z,13.60
2018-09-27T05:27:46.188Z,13.50
2018-09-27T05:30:19.492Z,13.40
2018-09-27T05:32:52.626Z,13.40
2018-09-27T05:35:25.459Z,13.30
2018-09-27T05:37:58.997Z,13.30
2018-09-27T05:40:32.561Z,13.30
2018-09-27T05:43:08.611Z,13.30
2018-09-27T05:45:42.107Z,13.20
2018-09-27T05:48:15.571Z,13.20
2018-09-27T05:50:48.988Z,13.20
2018-09-27T05:53:58.560Z,13.20
2018-09-27T05:56:31.363Z,13.20
2018-09-27T05:59:04.293Z,13.20
2018-09-27T06:01:37.261Z,13.20
2018-09-27T06:04:10.001Z,13.20
2018-09-27T06:06:42.781Z,13.10
2018-09-27T06:09:16.094Z,13.10
2018-09-27T06:11:48.837Z,13.10
2018-09-27T06:14:21.514Z,13.10
2018-09-27T06:16:55.022Z,13.00
2018-09-27T06:19:28.119Z,13.00
2018-09-27T06:22:07.068Z,12.90
2018-09-27T06:24:40.108Z,12.90
2018-09-27T06:27:14.192Z,12.80
2018-09-27T06:29:48.340Z,12.80
2018-09-27T06:32:21.267Z,12.80
2018-09-27T06:34:54.064Z,12.80
2018-09-27T06:37:27.071Z,12.70
2018-09-27T06:40:00.079Z,12.70
2018-09-27T06:42:32.807Z,12.70
2018-09-27T06:45:05.500Z,12.60
2018-09-27T06:47:39.033Z,12.60
2018-09-27T06:50:11.861Z,12.60
2018-09-27T06:52:44.549Z,12.60
2018-09-27T06:55:17.459Z,12.50
2018-09-27T06:57:50.211Z,12.50
2018-09-27T07:00:22.871Z,12.50
2018-09-27T07:02:55.715Z,12.50
2018-09-27T07:05:28.541Z,12.50
2018-09-27T07:08:01.301Z,12.40
2018-09-27T07:10:33.988Z,12.40
2018-09-27T07:13:06.846Z,12.30
2018-09-27T07:15:39.603Z,12.30
2018-09-27T07:18:12.422Z,12.20
2018-09-27T07:20:45.777Z,12.20
2018-09-27T07:23:18.643Z,12.20
2018-09-27T07:25:51.303Z,12.20
2018-09-27T07:28:24.886Z,12.10
2018-09-27T07:30:58.396Z,12.20
2018-09-27T07:33:31.141Z,12.10
2018-09-27T07:36:03.828Z,12.10
2018-09-27T07:38:36.588Z,12.00
2018-09-27T07:41:09.595Z,12.00
2018-09-27T07:43:42.282Z,12.00
2018-09-27T14:33:54.550Z,9.80
2018-09-27T14:36:28.587Z,9.90
2018-09-27T14:39:01.579Z,10.00
2018-09-27T14:41:34.820Z,10.00
2018-09-27T14:44:09.748Z,10.00
2018-09-27T14:46:42.793Z,10.10
2018-09-27T14:49:16.694Z,10.10
2018-09-27T14:51:50.227Z,10.10
2018-09-27T14:54:23.268Z,10.20
2018-09-27T14:56:56.247Z,10.30
2018-09-27T14:59:30.274Z,10.40
2018-09-27T15:02:04.118Z,10.40
2018-09-27T15:04:37.956Z,10.50
2018-09-27T15:07:11.378Z,10.50
2018-09-27T15:09:44.297Z,10.70
2018-09-27T15:12:17.086Z,10.70
2018-09-27T15:14:50.014Z,10.80
2018-09-27T15:17:23.695Z,10.90
2018-09-27T15:19:57.274Z,11.00
2018-09-27T15:22:32.182Z,11.10
2018-09-27T15:25:05.636Z,11.20
2018-09-27T15:27:38.271Z,11.30
2018-09-27T15:30:12.039Z,11.40
2018-09-27T15:32:44.797Z,11.50
2018-09-27T15:35:17.854Z,11.40
2018-09-27T15:37:50.532Z,11.50
2018-09-27T15:40:23.330Z,11.50
2018-09-27T15:42:57.087Z,11.50
2018-09-27T15:45:29.995Z,11.50
2018-09-27T15:48:04.086Z,11.50
2018-09-27T15:50:36.906Z,11.60
2018-09-27T15:53:09.800Z,11.60
2018-09-27T15:55:42.524Z,11.60
2018-09-27T15:58:15.497Z,11.70
2018-09-27T16:00:50.392Z,11.70
2018-09-27T16:03:23.497Z,11.70
2018-09-27T16:05:56.213Z,11.70
2018-09-27T16:08:28.939Z,11.80
2018-09-27T16:11:02.198Z,11.90
2018-09-27T16:13:34.921Z,12.00
2018-09-27T16:16:07.640Z,12.00
2018-09-27T16:18:40.338Z,12.10
2018-09-27T16:21:13.095Z,12.20
2018-09-27T16:23:45.805Z,12.20
2018-09-27T16:26:18.528Z,12.30
2018-09-27T16:28:51.534Z,12.40
2018-09-27T16:31:30.247Z,12.50
2018-09-27T16:34:02.932Z,12.60
2018-09-27T16:36:41.482Z,12.70
2018-09-27T16:39:14.262Z,12.70
2018-09-27T16:41:47.049Z,12.80
2018-09-27T16:44:19.705Z,12.80
2018-09-27T16:46:52.698Z,12.90
2018-09-27T16:49:25.396Z,12.90
2018-09-27T16:51:58.097Z,13.00
2018-09-27T16:54:30.864Z,13.10
2018-09-27T16:57:03.590Z,13.20
2018-09-27T16:59:36.387Z,13.20
2018-09-27T17:02:09.254Z,13.30
2018-09-27T17:04:42.448Z,13.40
2018-09-27T17:07:15.913Z,13.50
2018-09-27T17:09:48.712Z,13.50
2018-09-27T17:12:21.402Z,13.70
2018-09-27T17:14:54.176Z,13.70
2018-09-27T17:17:27.083Z,13.80
2018-09-27T17:20:00.536Z,13.90
2018-09-27T17:22:34.972Z,14.00
2018-09-27T17:25:07.920Z,14.00
2018-09-27T17:27:40.790Z,14.10
2018-09-27T17:30:13.412Z,14.10
2018-09-27T17:32:46.972Z,14.20
2018-09-27T17:35:19.673Z,14.40
2018-09-27T17:37:52.661Z,14.50
2018-09-27T17:40:25.367Z,14.60
2018-09-27T17:42:58.090Z,14.60
2018-09-27T17:45:30.955Z,14.70
2018-09-27T17:48:03.635Z,14.80
2018-09-27T17:50:36.389Z,14.90
2018-09-27T17:53:09.155Z,15.00
2018-09-27T17:55:41.976Z,15.10
2018-09-27T17:58:15.243Z,15.30
2018-09-27T18:00:49.819Z,15.40
2018-09-27T18:03:22.609Z,15.50
2018-09-27T18:05:55.311Z,15.60
2018-09-27T18:08:28.049Z,15.70
2018-09-27T18:11:01.604Z,15.80
2018-09-27T18:13:36.230Z,15.90
2018-09-27T18:16:10.421Z,15.90
2018-09-27T18:18:43.783Z,16.10
2018-09-27T18:21:19.035Z,16.20
2018-09-27T18:23:53.679Z,16.30
2018-09-27T18:26:26.390Z,16.30
2018-09-27T18:28:59.756Z,16.40
2018-09-27T18:31:32.426Z,16.50
2018-09-27T18:34:05.209Z,16.50
2018-09-27T18:36:37.885Z,16.60
2018-09-27T18:39:14.186Z,16.70
2018-09-27T18:41:47.489Z,16.90
2018-09-27T18:44:20.236Z,17.00
2018-09-27T18:46:52.908Z,17.10
2018-09-27T18:49:25.577Z,17.30
2018-09-27T18:51:58.261Z,17.30
2018-09-27T18:54:32.047Z,17.50
2018-09-27T18:57:04.684Z,17.50
2018-09-27T18:59:44.447Z,17.50
2018-09-27T19:02:17.482Z,17.60
2018-09-27T19:04:50.133Z,17.70
2018-09-27T19:07:22.774Z,17.80
2018-09-27T19:09:55.430Z,17.90
2018-09-27T19:12:28.210Z,18.00
2018-09-27T19:15:00.854Z,18.10
2018-09-27T19:17:33.505Z,18.20
2018-09-27T19:20:06.284Z,18.20
2018-09-27T19:22:39.021Z,18.20
2018-09-27T19:25:11.748Z,18.40
2018-09-27T19:27:44.479Z,18.40
2018-09-27T19:30:17.143Z,18.50
2018-09-27T19:32:50.372Z,18.50
2018-09-27T19:35:23.046Z,18.70
2018-09-27T19:37:55.711Z,18.70
2018-09-27T19:40:28.376Z,18.70
2018-09-27T19:43:02.039Z,18.70
2018-09-27T19:45:34.789Z,18.70
2018-09-27T19:48:07.833Z,18.70
2018-09-27T19:50:40.494Z,18.80
2018-09-27T19:53:13.594Z,18.90
2018-09-27T19:55:46.247Z,19.00
2018-09-27T19:58:20.197Z,19.00
2018-09-27T20:00:53.201Z,19.10
2018-09-27T20:03:26.588Z,19.20
2018-09-27T20:05:59.716Z,19.30
2018-09-27T20:08:32.361Z,19.30
2018-09-27T20:11:04.997Z,19.40
2018-09-27T20:13:37.647Z,19.50
2018-09-27T20:16:10.503Z,19.50
2018-09-27T20:18:43.224Z,19.50
2018-09-27T20:21:15.960Z,19.70
2018-09-27T20:23:48.712Z,19.80
2018-09-27T20:26:21.336Z,19.80
2018-09-27T20:28:54.012Z,20.00
2018-09-27T20:31:26.925Z,20.00
2018-09-27T20:33:59.805Z,20.20
2018-09-27T20:36:32.478Z,20.20
2018-09-27T20:39:06.511Z,20.20
2018-09-27T20:41:39.255Z,20.30
2018-09-27T20:44:11.919Z,20.40
2018-09-27T20:46:44.608Z,20.50
2018-09-27T20:49:17.404Z,20.60
2018-09-27T20:51:50.090Z,20.70
2018-09-27T20:54:29.084Z,20.80
2018-09-27T20:57:01.839Z,20.80
2018-09-27T20:59:34.535Z,20.80
2018-09-27T21:02:08.539Z,20.90
2018-09-27T21:04:41.227Z,21.10
2018-09-27T21:07:13.951Z,21.20
2018-09-27T21:09:46.676Z,21.20
2018-09-27T21:12:20.010Z,21.40
2018-09-27T21:14:52.709Z,21.50
2018-09-27T21:17:25.475Z,21.70
2018-09-27T21:19:58.732Z,21.70
2018-09-27T21:22:31.443Z,21.60
2018-09-27T21:25:04.125Z,21.60
2018-09-27T21:27:36.916Z,21.70
2018-09-27T21:30:10.645Z,21.80
2018-09-27T21:32:43.342Z,21.90
2018-09-27T21:35:16.819Z,22.00
2018-09-27T21:37:50.024Z,22.00
2018-09-27T21:40:22.834Z,22.10
2018-09-27T21:42:55.512Z,22.20
2018-09-27T21:45:28.306Z,22.30
2018-09-27T21:48:00.955Z,22.20
2018-09-27T21:50:33.608Z,22.10
2018-09-27T21:53:06.298Z,22.20
2018-09-27T21:55:38.972Z,22.30
2018-09-27T21:58:11.752Z,22.30
2018-09-27T22:00:45.424Z,22.40
2018-09-27T22:03:18.180Z,22.50
2018-09-27T22:05:50.930Z,22.50
2018-09-27T22:08:23.656Z,22.70
2018-09-27T22:10:57.554Z,22.80
2018-09-27T22:13:30.944Z,22.80
2018-09-27T22:16:05.317Z,22.90
2018-09-27T22:18:39.488Z,22.80
2018-09-27T22:21:12.160Z,22.80
2018-09-27T22:23:45.037Z,22.90
2018-09-27T22:26:17.833Z,23.00
2018-09-27T22:28:52.085Z,23.20
2018-09-27T22:31:27.517Z,23.20
2018-09-27T22:34:01.296Z,23.40
2018-09-27T22:36:35.076Z,23.50
2018-09-27T22:39:09.462Z,23.50
2018-09-27T22:41:43.972Z,23.40
2018-09-27T22:44:18.964Z,23.40
2018-09-27T22:46:51.766Z,23.40
2018-09-27T22:49:25.130Z,23.50
2018-09-27T22:51:57.912Z,23.50
2018-09-27T22:54:31.445Z,23.30
2018-09-27T22:57:04.645Z,23.40
2018-09-27T22:59:37.562Z,23.50
2018-09-27T23:02:10.397Z,23.80
2018-09-27T23:04:43.268Z,23.90
2018-09-27T23:07:16.494Z,23.90
2018-09-27T23:09:49.386Z,23.90
2018-09-27T23:12:22.193Z,23.80
2018-09-27T23:14:54.928Z,23.70
2018-09-27T23:17:27.954Z,23.50
2018-09-27T23:20:01.938Z,23.30
2018-09-27T23:22:34.593Z,23.20
2018-09-27T23:25:07.339Z,23.20
2018-09-27T23:27:40.639Z,23.20
2018-09-27T23:30:13.343Z,23.10
2018-09-27T23:32:46.134Z,22.90
2018-09-27T23:35:18.844Z,22.70
2018-09-27T23:37:51.594Z,22.60
2018-09-27T23:40:24.322Z,22.60
2018-09-27T23:42:57.646Z,22.70
2018-09-27T23:45:30.511Z,22.70
2018-09-27T23:48:03.711Z,22.90
2018-09-27T23:50:36.485Z,23.00
2018-09-27T23:53:09.679Z,23.00
2018-09-27T23:55:43.340Z,23.00
2018-09-27T23:58:16.951Z,23.00
